Time;durP1;ratioP1;P1;durP2;ratioP2;P2;SDS_P1;SDS_P2;PMS_P1;PMS_P2;Temp;Humidity;BMP_temperature;BMP_pressure;BME280_temperature;BME280_humidity;BME280_pressure;Samples;Min_cycle;Max_cycle;Signal;HPM_P1;HPM_P2
2023/09/12 00:00:23;;;;;;;50.38;30.35;;;;;;;22.64;100.00;101209.75;5007587;28;19960;-74
2023/09/12 00:02:50;;;;;;;41.15;28.80;;;;;;;22.63;100.00;101215.28;5020483;28;20041;-70
2023/09/12 00:05:17;;;;;;;51.17;32.88;;;;;;;22.57;100.00;101214.31;5011519;28;20056;-73
2023/09/12 00:07:43;;;;;;;82.68;35.28;;;;;;;22.54;100.00;101198.69;5017260;28;20052;-72
2023/09/12 00:10:10;;;;;;;40.70;31.20;;;;;;;22.51;100.00;101193.78;5015856;28;20096;-68
2023/09/12 00:12:36;;;;;;;46.25;32.15;;;;;;;22.47;100.00;101190.72;5018716;28;20051;-69
2023/09/12 00:15:04;;;;;;;37.50;29.38;;;;;;;22.44;100.00;101191.19;5021706;28;20053;-67
2023/09/12 00:17:30;;;;;;;42.03;29.05;;;;;;;22.37;100.00;101190.38;5020421;28;20041;-68
2023/09/12 00:19:57;;;;;;;39.83;29.40;;;;;;;22.35;100.00;101192.47;5027312;28;20346;-67
2023/09/12 00:22:23;;;;;;;55.10;32.35;;;;;;;22.30;100.00;101185.06;5016149;28;20046;-69
2023/09/12 00:24:50;;;;;;;45.65;31.20;;;;;;;22.29;100.00;101198.66;5027681;28;20060;-67
2023/09/12 00:27:16;;;;;;;44.50;31.15;;;;;;;22.25;100.00;101208.16;5013192;28;20494;-67
2023/09/12 00:29:43;;;;;;;40.92;29.25;;;;;;;22.24;100.00;101222.50;5024386;28;20080;-68
2023/09/12 00:32:09;;;;;;;38.47;29.83;;;;;;;22.26;100.00;101231.16;5026346;28;20076;-68
2023/09/12 00:34:36;;;;;;;43.30;30.40;;;;;;;22.25;100.00;101227.66;5021340;28;20049;-68
2023/09/12 00:37:03;;;;;;;41.78;29.98;;;;;;;22.27;100.00;101220.25;5022707;28;20124;-68
2023/09/12 00:39:30;;;;;;;42.33;30.88;;;;;;;22.25;100.00;101232.19;5008810;28;20049;-68
2023/09/12 00:41:56;;;;;;;41.80;31.02;;;;;;;22.19;100.00;101246.34;5008840;28;20376;-68
2023/09/12 00:44:23;;;;;;;42.15;32.05;;;;;;;22.10;100.00;101259.97;5010219;28;20054;-68
2023/09/12 00:46:50;;;;;;;42.80;31.40;;;;;;;22.07;100.00;101268.41;5013365;28;20042;-67
2023/09/12 00:49:17;;;;;;;41.57;30.87;;;;;;;22.07;100.00;101275.59;5021308;28;20084;-68
2023/09/12 00:51:45;;;;;;;38.05;30.15;;;;;;;22.09;100.00;101263.69;5013189;28;20053;-68
2023/09/12 00:54:11;;;;;;;44.20;30.98;;;;;;;22.11;100.00;101256.28;5019832;28;20096;-67
2023/09/12 00:56:38;;;;;;;41.92;29.63;;;;;;;22.17;100.00;101245.75;4998957;28;20045;-68
2023/09/12 00:59:05;;;;;;;40.17;31.00;;;;;;;22.12;100.00;101235.72;5026566;28;20048;-67
2023/09/12 01:01:33;;;;;;;43.30;30.83;;;;;;;22.11;100.00;101218.06;5013025;28;20492;-67
2023/09/12 01:04:01;;;;;;;41.17;30.60;;;;;;;22.08;100.00;101207.78;5019740;28;20045;-67
2023/09/12 01:06:29;;;;;;;39.63;30.23;;;;;;;22.05;100.00;101203.69;5017405;28;20038;-67
2023/09/12 01:08:55;;;;;;;39.30;28.73;;;;;;;22.02;100.00;101201.44;5009318;28;20060;-67
2023/09/12 01:11:22;;;;;;;39.47;29.63;;;;;;;22.01;100.00;101202.50;5023055;28;20387;-66
2023/09/12 01:13:49;;;;;;;41.83;29.35;;;;;;;22.00;100.00;101197.34;5017160;28;20647;-67
2023/09/12 01:16:15;;;;;;;42.92;29.95;;;;;;;21.95;100.00;101197.16;5026952;28;20057;-67
2023/09/12 01:18:42;;;;;;;41.22;28.75;;;;;;;21.88;100.00;101195.34;5005275;28;20076;-67
2023/09/12 01:21:18;;;;;;;39.40;27.65;;;;;;;21.86;100.00;101192.06;5022231;28;20568;-66
2023/09/12 01:23:51;;;;;;;40.42;29.30;;;;;;;21.81;100.00;101193.75;5020973;28;20107;-67
2023/09/12 01:26:34;;;;;;;38.60;27.00;;;;;;;21.75;100.00;101183.91;5012635;28;20053;-67
2023/09/12 01:29:03;;;;;;;40.90;28.95;;;;;;;21.68;100.00;101192.75;5015372;28;20057;-67
2023/09/12 01:31:31;;;;;;;37.45;28.75;;;;;;;21.61;100.00;101186.63;5019616;28;20148;-66
2023/09/12 01:33:57;;;;;;;43.03;29.60;;;;;;;21.55;100.00;101183.97;5023805;28;20111;-66
2023/09/12 01:36:24;;;;;;;36.70;29.33;;;;;;;21.48;100.00;101184.81;5010869;28;20049;-67
2023/09/12 01:38:50;;;;;;;38.75;28.42;;;;;;;21.43;100.00;101181.13;5023797;28;20141;-67
2023/09/12 01:41:18;;;;;;;41.35;29.38;;;;;;;21.35;100.00;101187.50;5007694;28;20132;-67
2023/09/12 01:43:46;;;;;;;;;;;;;;;21.31;100.00;101181.75;5024880;28;20132;-67
2023/09/12 01:46:15;;;;;;;37.55;27.05;;;;;;;21.29;100.00;101183.81;5021890;28;20009;-67
2023/09/12 01:48:43;;;;;;;38.30;27.35;;;;;;;21.24;100.00;101188.94;5005189;28;20141;-66
2023/09/12 01:51:11;;;;;;;42.83;28.20;;;;;;;21.20;100.00;101187.72;5025753;28;20045;-67
2023/09/12 01:53:38;;;;;;;34.77;25.80;;;;;;;21.17;100.00;101181.97;5018561;28;20049;-66
2023/09/12 01:56:05;;;;;;;42.28;27.83;;;;;;;21.12;100.00;101188.75;5023568;28;20307;-67
2023/09/12 01:58:31;;;;;;;33.78;26.83;;;;;;;21.07;100.00;101190.41;5013168;28;20085;-66
2023/09/12 02:00:58;;;;;;;32.88;25.67;;;;;;;21.04;100.00;101194.31;5003816;28;20280;-67
2023/09/12 02:03:24;;;;;;;34.53;26.25;;;;;;;21.01;100.00;101192.06;5013879;28;20049;-67
2023/09/12 02:05:51;;;;;;;36.22;25.83;;;;;;;20.98;100.00;101195.13;5015753;28;20140;-67
2023/09/12 02:08:18;;;;;;;33.00;24.60;;;;;;;20.96;100.00;101183.03;5017071;28;20042;-67
2023/09/12 02:10:44;;;;;;;29.63;23.10;;;;;;;20.93;100.00;101179.75;5015783;28;20046;-67
2023/09/12 02:13:10;;;;;;;25.77;18.40;;;;;;;20.89;100.00;101177.69;5020045;28;20042;-67
2023/09/12 02:15:37;;;;;;;22.65;16.63;;;;;;;20.84;100.00;101175.66;5013774;28;20147;-67
2023/09/12 02:18:04;;;;;;;24.75;17.10;;;;;;;20.77;100.00;101179.34;5019773;28;20045;-66
2023/09/12 02:20:32;;;;;;;23.75;17.13;;;;;;;20.73;100.00;101177.06;5024863;28;20427;-67
2023/09/12 02:22:59;;;;;;;27.90;18.77;;;;;;;20.73;100.00;101179.75;5012073;28;20498;-67
2023/09/12 02:25:25;;;;;;;27.25;20.45;;;;;;;20.70;100.00;101174.84;5021559;28;20127;-67
2023/09/12 02:27:51;;;;;;;30.75;22.92;;;;;;;20.68;100.00;101181.38;5011068;28;20624;-66
2023/09/12 02:30:18;;;;;;;30.67;23.67;;;;;;;20.70;100.00;101180.19;5014190;28;20152;-66
2023/09/12 02:32:44;;;;;;;32.40;25.13;;;;;;;20.74;100.00;101189.41;5012898;28;20042;-66
2023/09/12 02:35:11;;;;;;;33.63;24.90;;;;;;;20.74;100.00;101192.06;5023948;28;20081;-67
2023/09/12 02:37:37;;;;;;;30.10;25.02;;;;;;;20.75;100.00;101192.88;5019890;28;20056;-67
2023/09/12 02:40:10;;;;;;;31.63;23.27;;;;;;;20.75;100.00;101192.88;5013902;28;20426;-67
2023/09/12 02:42:37;;;;;;;28.02;22.50;;;;;;;20.68;100.00;101197.38;5011713;28;20100;-67
2023/09/12 02:45:04;;;;;;;28.80;22.20;;;;;;;20.65;100.00;101197.81;5008706;28;20358;-67
2023/09/12 02:47:31;;;;;;;31.63;22.35;;;;;;;20.60;100.00;101193.09;5014379;28;20050;-67
2023/09/12 02:49:57;;;;;;;30.77;21.73;;;;;;;20.58;100.00;101194.25;5015152;28;20075;-67
2023/09/12 02:52:24;;;;;;;29.38;22.20;;;;;;;20.52;100.00;101202.06;5014023;28;20067;-67
2023/09/12 02:54:50;;;;;;;28.35;22.45;;;;;;;20.51;100.00;101207.59;5019448;28;20054;-66
2023/09/12 02:57:17;;;;;;;33.90;25.42;;;;;;;20.53;100.00;101210.88;5007601;28;20052;-67
2023/09/12 02:59:44;;;;;;;34.30;24.38;;;;;;;20.57;100.00;101212.09;5018433;28;20053;-67
2023/09/12 03:02:10;;;;;;;34.85;25.10;;;;;;;20.57;100.00;101214.78;4999112;28;20133;-67
2023/09/12 03:04:37;;;;;;;36.58;25.25;;;;;;;20.58;100.00;101212.91;5022550;28;20049;-67
2023/09/12 03:07:03;;;;;;;32.53;24.45;;;;;;;20.57;100.00;101212.09;5003317;28;20046;-67
2023/09/12 03:09:30;;;;;;;32.45;23.45;;;;;;;20.57;100.00;101211.28;5013252;28;20050;-66
2023/09/12 03:11:56;;;;;;;34.42;21.88;;;;;;;20.51;100.00;101216.41;5013172;28;20057;-67
2023/09/12 03:14:23;;;;;;;30.95;20.85;;;;;;;20.47;100.00;101209.03;5016938;28;20049;-66
2023/09/12 03:16:49;;;;;;;31.45;20.73;;;;;;;20.39;100.00;101206.56;5021694;28;20045;-66
2023/09/12 03:19:16;;;;;;;26.13;19.83;;;;;;;20.35;100.00;101204.28;5017898;28;20045;-67
2023/09/12 03:21:42;;;;;;;28.02;20.63;;;;;;;20.34;100.00;101213.28;5023040;28;20140;-67
2023/09/12 03:24:08;;;;;;;30.55;20.77;;;;;;;20.30;100.00;101209.38;5010813;28;20084;-67
2023/09/12 03:26:35;;;;;;;33.22;21.63;;;;;;;20.29;100.00;101199.75;5017977;28;20107;-67
2023/09/12 03:29:03;;;;;;;30.75;23.42;;;;;;;20.31;100.00;101205.72;5013565;28;20054;-66
2023/09/12 03:31:30;;;;;;;28.60;22.80;;;;;;;20.35;100.00;101193.63;5016590;28;20430;-66
2023/09/12 03:33:57;;;;;;;31.35;21.50;;;;;;;20.38;100.00;101199.56;5018745;28;20053;-66
2023/09/12 03:36:23;;;;;;;28.88;21.92;;;;;;;20.39;100.00;101196.72;5014631;28;20054;-66
2023/09/12 03:38:50;;;;;;;28.90;21.63;;;;;;;20.39;100.00;101195.91;5018220;28;20413;-66
2023/09/12 03:41:17;;;;;;;29.65;20.27;;;;;;;20.40;100.00;101194.84;5004067;28;20057;-66
2023/09/12 03:43:43;;;;;;;26.47;17.97;;;;;;;20.40;100.00;101192.19;5022201;28;20061;-67
2023/09/12 03:46:10;;;;;;;29.23;18.15;;;;;;;20.34;100.00;101193.81;5010533;28;20647;-67
2023/09/12 03:48:36;;;;;;;24.27;18.27;;;;;;;20.32;100.00;101179.88;5016200;28;20049;-67
2023/09/12 03:51:04;;;;;;;26.92;21.38;;;;;;;20.26;100.00;101178.84;5020199;28;20053;-67
2023/09/12 03:53:30;;;;;;;28.90;20.80;;;;;;;20.26;100.00;101183.34;5009643;28;20073;-67
2023/09/12 03:55:57;;;;;;;28.60;19.67;;;;;;;20.27;100.00;101180.50;5022324;28;20053;-67
2023/09/12 03:58:24;;;;;;;28.47;20.20;;;;;;;20.28;100.00;101181.31;5024410;28;20128;-66
2023/09/12 04:00:50;;;;;;;28.42;20.65;;;;;;;20.26;100.00;101181.50;4998702;28;20054;-66
2023/09/12 04:03:17;;;;;;;26.33;18.48;;;;;;;20.26;100.00;101170.84;5017400;28;20060;-66
2023/09/12 04:05:46;;;;;;;29.20;18.23;;;;;;;20.25;100.00;101155.91;4998403;28;20068;-66
2023/09/12 04:08:13;;;;;;;33.00;21.50;;;;;;;20.25;100.00;101163.91;5018065;28;20056;-66
2023/09/12 04:10:40;;;;;;;31.55;20.95;;;;;;;20.22;100.00;101160.81;5016936;28;20136;-67
2023/09/12 04:13:06;;;;;;;43.88;21.58;;;;;;;20.20;100.00;101157.53;5015519;28;20226;-67
2023/09/12 04:15:33;;;;;;;31.45;22.27;;;;;;;20.18;100.00;101154.25;5018940;28;20046;-66
2023/09/12 04:18:00;;;;;;;38.75;22.83;;;;;;;20.15;100.00;101147.50;5011778;28;20536;-67
2023/09/12 04:20:27;;;;;;;39.03;23.00;;;;;;;20.11;100.00;101146.22;5016608;28;20057;-66
2023/09/12 04:22:53;;;;;;;73.20;24.15;;;;;;;20.10;100.00;101150.75;5016257;28;20049;-67
2023/09/12 04:25:19;;;;;;;58.20;22.85;;;;;;;20.06;100.00;101152.16;5009968;28;20050;-67
2023/09/12 04:27:46;;;;;;;40.42;22.73;;;;;;;20.05;100.00;101160.34;5016413;28;20561;-66
2023/09/12 04:30:13;;;;;;;68.47;28.13;;;;;;;20.05;100.00;101155.88;5013367;28;20068;-67
2023/09/12 04:32:39;;;;;;;78.97;27.17;;;;;;;20.05;100.00;101152.38;5020091;28;20472;-66
2023/09/12 04:35:06;;;;;;;139.40;28.23;;;;;;;20.00;100.00;101154.81;5006184;28;20699;-67
2023/09/12 04:37:33;;;;;;;57.78;23.90;;;;;;;19.96;100.00;101159.72;5004876;28;20073;-67
2023/09/12 04:39:59;;;;;;;39.22;25.25;;;;;;;20.01;100.00;101148.47;4996382;28;20042;-66
2023/09/12 04:42:26;;;;;;;33.22;25.85;;;;;;;20.04;100.00;101148.88;5016119;28;20053;-67
2023/09/12 04:44:52;;;;;;;36.17;25.33;;;;;;;20.06;100.00;101156.69;5009306;28;20064;-66
2023/09/12 04:47:19;;;;;;;42.03;27.73;;;;;;;19.96;100.00;101159.72;4999398;28;20052;-67
2023/09/12 04:49:45;;;;;;;71.95;29.70;;;;;;;19.90;100.00;101166.66;5012584;28;20115;-67
2023/09/12 04:52:12;;;;;;;42.65;30.17;;;;;;;19.86;100.00;101170.75;5010182;28;20337;-66
2023/09/12 04:54:38;;;;;;;36.97;27.92;;;;;;;19.93;100.00;101171.59;5023513;28;20085;-66
2023/09/12 04:57:05;;;;;;;42.60;31.15;;;;;;;20.00;100.00;101166.28;5014820;28;20417;-67
2023/09/12 04:59:31;;;;;;;38.65;28.70;;;;;;;20.09;100.00;101167.75;5014394;28;20045;-67
2023/09/12 05:01:58;;;;;;;43.40;30.55;;;;;;;20.19;100.00;101164.72;5006104;28;20210;-66
2023/09/12 05:04:24;;;;;;;39.95;30.48;;;;;;;20.26;100.00;101168.19;5021968;28;20090;-67
2023/09/12 05:06:51;;;;;;;41.17;29.95;;;;;;;20.33;100.00;101168.22;5025956;28;20483;-67
2023/09/12 05:09:17;;;;;;;46.40;30.27;;;;;;;20.36;100.00;101170.47;5021142;28;20057;-68
2023/09/12 05:11:44;;;;;;;44.28;29.48;;;;;;;20.38;100.00;101168.41;5026777;28;20053;-67
2023/09/12 05:14:10;;;;;;;40.95;29.85;;;;;;;20.36;100.00;101173.13;5016284;28;20045;-66
2023/09/12 05:16:37;;;;;;;43.47;28.40;;;;;;;20.41;100.00;101176.00;5022128;28;20538;-67
2023/09/12 05:19:04;;;;;;;45.88;29.95;;;;;;;20.45;100.00;101177.25;5022623;28;20127;-66
2023/09/12 05:21:31;;;;;;;50.13;31.30;;;;;;;20.49;100.00;101177.66;5023002;28;20530;-67
2023/09/12 05:23:58;;;;;;;52.60;32.20;;;;;;;20.48;100.00;101171.53;5015436;28;20414;-66
2023/09/12 05:26:24;;;;;;;78.88;35.92;;;;;;;20.45;100.00;101187.09;5016169;28;20452;-67
2023/09/12 05:28:51;;;;;;;59.53;35.67;;;;;;;20.38;100.00;101191.56;5021522;28;20057;-66
2023/09/12 05:31:17;;;;;;;79.63;36.25;;;;;;;20.36;100.00;101202.44;5013843;28;20092;-66
2023/09/12 05:33:44;;;;;;;61.08;34.10;;;;;;;20.35;100.00;101198.94;5026225;28;20049;-67
2023/09/12 05:36:10;;;;;;;115.15;38.08;;;;;;;20.29;100.00;101191.78;5024822;28;20422;-67
2023/09/12 05:38:37;;;;;;;129.95;38.90;;;;;;;20.28;100.00;101199.97;5018497;28;20065;-67
2023/09/12 05:41:03;;;;;;;88.65;37.03;;;;;;;20.26;100.00;101200.16;5020506;28;20055;-67
2023/09/12 05:43:30;;;;;;;81.78;38.20;;;;;;;20.17;100.00;101200.53;5011888;28;20053;-67
2023/09/12 05:45:58;;;;;;;69.93;37.05;;;;;;;20.21;100.00;101201.78;5022637;28;21006;-66
2023/09/12 05:48:24;;;;;;;64.60;39.45;;;;;;;20.22;100.00;101203.44;5019139;28;20041;-66
2023/09/12 05:50:50;;;;;;;78.40;40.88;;;;;;;20.21;100.00;101197.28;5025419;28;20243;-70
2023/09/12 05:53:17;;;;;;;63.63;39.33;;;;;;;20.22;100.00;101198.09;5026547;28;20628;-67
2023/09/12 05:55:44;;;;;;;65.63;41.13;;;;;;;20.24;100.00;101198.72;5005657;28;20137;-67
2023/09/12 05:58:11;;;;;;;62.00;38.33;;;;;;;20.31;100.00;101189.72;5020852;28;20091;-67
2023/09/12 06:00:37;;;;;;;63.70;39.78;;;;;;;20.28;100.00;101194.63;5005972;28;20716;-67
2023/09/12 06:03:04;;;;;;;63.08;40.28;;;;;;;20.32;100.00;101190.53;5025666;28;20049;-67
2023/09/12 06:05:31;;;;;;;72.75;41.20;;;;;;;20.37;100.00;101192.63;5019328;28;20058;-67
2023/09/12 06:07:57;;;;;;;67.13;41.05;;;;;;;20.38;100.00;101197.72;5021711;28;20080;-68
2023/09/12 06:10:24;;;;;;;68.78;41.08;;;;;;;20.40;100.00;101214.31;5018779;28;20132;-67
2023/09/12 06:12:50;;;;;;;67.45;42.70;;;;;;;20.29;100.00;101218.41;5013131;28;20052;-66
2023/09/12 06:15:17;;;;;;;62.08;39.60;;;;;;;20.32;100.00;101222.50;5023624;28;20166;-65
2023/09/12 06:17:44;;;;;;;62.85;41.90;;;;;;;20.31;100.00;101213.69;5014865;28;20443;-65
2023/09/12 06:20:10;;;;;;;65.05;41.25;;;;;;;20.33;100.00;101224.97;5025589;28;20076;-67
2023/09/12 06:22:37;;;;;;;55.33;37.33;;;;;;;20.40;100.00;101218.84;5012001;28;20053;-66
2023/09/12 06:25:03;;;;;;;66.93;41.00;;;;;;;20.41;100.00;101221.31;5016716;28;20054;-68
2023/09/12 06:27:31;;;;;;;56.17;37.55;;;;;;;20.50;100.00;101222.78;5021496;28;20158;-68
2023/09/12 06:29:58;;;;;;;63.65;40.90;;;;;;;20.50;100.00;101225.44;5015868;28;20045;-68
2023/09/12 06:32:24;;;;;;;66.80;40.35;;;;;;;20.54;100.00;101228.50;5006939;28;20103;-66
2023/09/12 06:34:51;;;;;;;66.65;41.75;;;;;;;20.61;100.00;101231.22;5014585;28;20263;-66
2023/09/12 06:37:18;;;;;;;66.18;39.83;;;;;;;20.67;100.00;101219.72;5013147;28;20110;-66
2023/09/12 06:39:45;;;;;;;66.40;41.73;;;;;;;20.65;100.00;101221.78;5013683;28;20155;-66
2023/09/12 06:42:11;;;;;;;63.67;40.65;;;;;;;20.70;100.00;101222.81;5024225;28;20077;-67
2023/09/12 06:44:38;;;;;;;63.08;40.45;;;;;;;20.71;100.00;101223.63;5024102;28;20433;-67
2023/09/12 06:47:05;;;;;;;61.88;39.72;;;;;;;20.77;100.00;101225.47;5017501;28;20084;-67
2023/09/12 06:49:35;;;;;;;68.63;42.38;;;;;;;20.83;100.00;101223.84;5023313;28;20044;-67
2023/09/12 06:52:03;;;;;;;70.15;41.55;;;;;;;20.78;100.00;101229.81;5004673;28;20049;-67
2023/09/12 06:54:29;;;;;;;65.45;40.28;;;;;;;20.86;100.00;101229.59;5021795;28;20096;-67
2023/09/12 06:56:56;;;;;;;72.65;41.92;;;;;;;20.86;100.00;101234.94;5019129;28;20241;-67
2023/09/12 06:59:22;;;;;;;61.17;39.42;;;;;;;20.95;100.00;101238.19;5013365;28;20048;-68
2023/09/12 07:01:49;;;;;;;66.07;41.38;;;;;;;20.96;100.00;101241.72;5012581;28;20053;-68
2023/09/12 07:04:15;;;;;;;63.78;39.85;;;;;;;20.98;100.00;101234.31;5013560;28;20494;-68
2023/09/12 07:06:42;;;;;;;66.80;41.90;;;;;;;21.03;100.00;101230.00;5005007;28;20056;-67
2023/09/12 07:09:11;;;;;;;65.97;40.95;;;;;;;21.06;100.00;101234.91;5007533;28;20474;-67
2023/09/12 07:11:38;;;;;;;68.95;42.25;;;;;;;21.07;100.00;101231.25;5022757;28;20065;-66
2023/09/12 07:14:04;;;;;;;69.20;41.72;;;;;;;21.07;100.00;101231.25;5015191;28;20045;-65
2023/09/12 07:16:31;;;;;;;65.60;40.53;;;;;;;21.15;100.00;101224.88;5022412;28;20511;-65
2023/09/12 07:18:58;;;;;;;73.40;43.50;;;;;;;21.15;100.00;101230.22;5006871;28;20049;-66
2023/09/12 07:21:25;;;;;;;65.43;41.33;;;;;;;21.11;100.00;101236.97;5012666;28;20080;-66
2023/09/12 07:23:51;;;;;;;63.10;40.05;;;;;;;21.20;100.00;101235.72;5022530;28;20049;-65
2023/09/12 07:26:18;;;;;;;60.03;39.42;;;;;;;21.30;100.00;101236.13;5018260;28;20517;-65
2023/09/12 07:28:45;;;;;;;56.50;37.13;;;;;;;21.33;100.00;101233.06;5024015;28;20161;-67
2023/09/12 07:31:12;;;;;;;62.78;39.13;;;;;;;21.41;100.00;101239.22;5017248;28;20064;-66
2023/09/12 07:33:38;;;;;;;63.38;41.25;;;;;;;21.44;100.00;101246.81;5016587;28;20057;-67
2023/09/12 07:36:05;;;;;;;63.08;40.40;;;;;;;21.46;100.00;101242.09;5018618;28;20053;-67
2023/09/12 07:38:32;;;;;;;64.63;40.20;;;;;;;21.49;100.00;101242.50;5005671;28;20108;-67
2023/09/12 07:41:00;;;;;;;61.58;40.45;;;;;;;21.51;100.00;101235.09;5021816;28;20063;-67
2023/09/12 07:43:26;;;;;;;;;;;;;;;21.56;100.00;101236.31;5017003;28;20500;-67
2023/09/12 07:45:57;;;;;;;58.72;38.60;;;;;;;21.55;100.00;101232.84;5020159;28;19926;-67
2023/09/12 07:48:24;;;;;;;56.15;39.10;;;;;;;21.56;100.00;101239.84;5009726;28;20113;-67
2023/09/12 07:50:51;;;;;;;63.70;40.75;;;;;;;21.55;100.00;101243.50;5019189;28;20053;-67
2023/09/12 07:53:18;;;;;;;57.53;37.35;;;;;;;21.59;100.00;101239.41;5022381;28;20132;-67
2023/09/12 07:55:47;;;;;;;59.40;38.97;;;;;;;21.64;100.00;101238.75;5013610;28;20049;-67
2023/09/12 07:58:15;;;;;;;58.53;38.20;;;;;;;21.71;100.00;101227.03;5024973;28;20059;-67
2023/09/12 08:00:42;;;;;;;55.95;38.38;;;;;;;21.69;100.00;101212.25;5013307;28;20417;-67
2023/09/12 08:03:08;;;;;;;62.10;38.78;;;;;;;21.70;100.00;101205.91;5003151;28;20929;-67
2023/09/12 08:05:35;;;;;;;63.83;39.03;;;;;;;21.73;100.00;101210.81;5005868;28;20081;-67
2023/09/12 08:08:02;;;;;;;62.78;39.78;;;;;;;21.60;100.00;101209.03;5021818;28;20061;-67
2023/09/12 08:10:29;;;;;;;60.13;39.58;;;;;;;21.59;100.00;101218.03;5014193;28;20058;-67
2023/09/12 08:12:55;;;;;;;64.03;41.72;;;;;;;21.51;100.00;101215.59;5016193;28;20053;-67
2023/09/12 08:15:22;;;;;;;62.80;40.35;;;;;;;21.58;100.00;101219.09;5019244;28;20077;-67
2023/09/12 08:17:51;;;;;;;60.55;39.35;;;;;;;21.56;100.00;101218.47;5012350;28;20119;-67
2023/09/12 08:20:19;;;;;;;62.05;41.88;;;;;;;21.65;100.00;101221.72;5023703;28;20056;-67
2023/09/12 08:22:46;;;;;;;64.22;39.97;;;;;;;21.65;100.00;101222.53;5016642;28;20119;-67
2023/09/12 08:25:14;;;;;;;59.58;39.63;;;;;;;21.67;100.00;101217.81;5022714;28;20049;-67
2023/09/12 08:27:43;;;;;;;58.00;38.28;;;;;;;21.70;100.00;101221.94;5022738;28;20610;-67
2023/09/12 08:30:13;;;;;;;52.92;36.22;;;;;;;21.82;100.00;101219.41;5007676;28;20125;-67
2023/09/12 08:32:43;;;;;;;56.97;37.10;;;;;;;21.89;100.00;101220.19;5022321;28;20050;-67
2023/09/12 08:35:14;;;;;;;52.20;35.65;;;;;;;21.90;100.00;101229.84;5018199;28;20178;-67
2023/09/12 08:37:41;;;;;;;54.85;35.92;;;;;;;21.96;100.00;101236.22;5026296;28;20049;-67
2023/09/12 08:40:10;;;;;;;56.13;36.30;;;;;;;21.91;100.00;101234.16;5021035;28;20478;-67
2023/09/12 08:42:42;;;;;;;53.03;34.90;;;;;;;21.96;100.00;101245.03;5013364;28;20487;-67
2023/09/12 08:45:13;;;;;;;56.80;37.05;;;;;;;22.06;100.00;101241.91;5021779;28;20054;-68
2023/09/12 08:47:44;;;;;;;53.22;37.50;;;;;;;22.07;100.00;101249.72;5018565;28;20137;-67
2023/09/12 08:50:16;;;;;;;58.53;37.00;;;;;;;22.05;100.00;101249.13;5025387;28;20053;-67
2023/09/12 08:52:45;;;;;;;56.70;37.70;;;;;;;22.14;100.00;101256.88;5019894;28;20053;-68
2023/09/12 08:55:25;;;;;;;55.10;36.80;;;;;;;22.15;100.00;101254.00;5026008;28;20046;-67
2023/09/12 08:57:55;;;;;;;55.47;36.50;;;;;;;22.05;100.00;101251.78;5005131;28;20801;-67
2023/09/12 09:00:23;;;;;;;53.83;35.50;;;;;;;22.00;100.00;101261.47;5010856;28;20054;-67
2023/09/12 09:02:50;;;;;;;49.10;33.38;;;;;;;21.92;100.00;101267.84;5011782;28;20484;-67
2023/09/12 09:05:17;;;;;;;49.05;33.28;;;;;;;22.05;100.00;101254.47;5009135;28;20060;-67
2023/09/12 09:07:45;;;;;;;45.17;30.92;;;;;;;22.07;100.00;101251.53;5019578;28;20076;-68
2023/09/12 09:10:18;;;;;;;49.30;32.10;;;;;;;22.24;100.00;101251.88;5011143;28;20049;-67
2023/09/12 09:12:54;;;;;;;38.78;27.25;;;;;;;22.31;100.00;101261.53;5022044;28;20526;-68
2023/09/12 09:15:22;;;;;;;39.92;25.95;;;;;;;22.23;100.00;101258.28;5019251;28;20569;-68
2023/09/12 09:17:51;;;;;;;45.75;29.88;;;;;;;22.27;100.00;101257.66;5026138;28;20071;-67
2023/09/12 09:20:31;;;;;;;42.00;29.02;;;;;;;22.30;100.00;101264.44;5019900;28;20681;-68
2023/09/12 09:22:58;;;;;;;44.60;30.95;;;;;;;22.25;100.00;101262.41;5026054;28;20638;-67
2023/09/12 09:25:25;;;;;;;46.57;31.80;;;;;;;22.40;100.00;101262.09;5013413;28;20041;-67
2023/09/12 09:27:51;;;;;;;46.47;31.50;;;;;;;22.51;100.00;101273.97;5022417;28;20085;-67
2023/09/12 09:30:18;;;;;;;40.38;29.88;;;;;;;22.77;100.00;101272.97;5025685;28;20049;-67
2023/09/12 09:32:46;;;;;;;39.47;28.10;;;;;;;22.89;100.00;101283.81;5017326;28;20049;-67
2023/09/12 09:35:13;;;;;;;41.25;27.73;;;;;;;23.27;100.00;101283.75;5025926;28;20049;-68
2023/09/12 09:37:41;;;;;;;37.33;26.40;;;;;;;23.31;100.00;101281.44;5016216;28;20049;-67
2023/09/12 09:40:08;;;;;;;36.70;25.92;;;;;;;23.49;100.00;101286.00;5017712;28;20060;-67
2023/09/12 09:42:35;;;;;;;30.48;22.15;;;;;;;23.82;100.00;101292.94;5021361;28;20053;-66
2023/09/12 09:45:02;;;;;;;33.05;25.38;;;;;;;23.98;100.00;101292.31;5019690;28;20056;-67
2023/09/12 09:47:29;;;;;;;35.78;24.95;;;;;;;23.97;100.00;101288.00;5022698;28;20045;-67
2023/09/12 09:49:59;;;;;;;30.67;23.90;;;;;;;24.11;100.00;101283.31;5018751;28;20049;-67
2023/09/12 09:52:27;;;;;;;32.17;23.73;;;;;;;24.17;100.00;101284.25;5019251;28;20055;-67
2023/09/12 09:54:53;;;;;;;32.22;23.88;;;;;;;24.11;100.00;101282.47;5007056;28;20480;-68
2023/09/12 09:57:20;;;;;;;33.20;24.90;;;;;;;24.05;100.00;101286.84;5022044;28;20053;-67
2023/09/12 09:59:51;;;;;;;29.13;21.30;;;;;;;23.97;100.00;101289.84;5023423;28;20049;-67
2023/09/12 10:02:22;;;;;;;28.00;21.63;;;;;;;23.67;100.00;101290.56;5011835;28;20358;-67
2023/09/12 10:04:52;;;;;;;30.40;22.73;;;;;;;23.82;100.00;101287.56;5025734;28;20060;-66
2023/09/12 10:07:27;;;;;;;28.05;21.23;;;;;;;24.14;100.00;101290.06;5005359;28;20228;-67
2023/09/12 10:09:55;;;;;;;29.52;22.27;;;;;;;24.46;100.00;101286.16;5023121;28;20527;-67
2023/09/12 10:12:24;;;;;;;25.90;19.70;;;;;;;24.52;100.00;101279.09;5019856;28;20474;-67
2023/09/12 10:14:50;;;;;;;20.55;15.50;;;;;;;24.62;100.00;101271.31;5025576;28;20477;-67
2023/09/12 10:17:23;;;;;;;25.38;19.58;;;;;;;24.80;100.00;101272.28;5018405;28;20627;-67
2023/09/12 10:19:55;;;;;;;24.20;20.23;;;;;;;24.91;100.00;101278.69;5022106;28;20521;-67
2023/09/12 10:22:30;;;;;;;27.48;21.08;;;;;;;24.92;100.00;101274.97;5018090;28;20111;-67
2023/09/12 10:24:57;;;;;;;24.33;20.02;;;;;;;25.17;100.00;101272.91;5016973;28;20414;-67
2023/09/12 10:27:25;;;;;;;28.75;20.55;;;;;;;25.54;100.00;101269.16;5023480;28;20045;-67
2023/09/12 10:29:53;;;;;;;21.48;17.60;;;;;;;25.62;nan;101268.84;5016415;28;20609;-67
2023/09/12 10:32:21;;;;;;;;;;;;;;;25.98;98.94;101264.22;5021896;28;20132;-67
2023/09/12 10:34:48;;;;;;;21.80;17.45;;;;;;;25.92;87.90;101257.13;5002561;28;20203;-67
2023/09/12 10:37:15;;;;;;;19.35;16.73;;;;;;;26.18;89.82;101263.78;5023468;28;20146;-67
2023/09/12 10:39:43;;;;;;;18.95;14.40;;;;;;;26.35;91.70;101267.34;5023277;28;20055;-67
2023/09/12 10:42:12;;;;;;;20.65;15.82;;;;;;;26.37;90.56;101257.16;5022306;28;20087;-67
2023/09/12 10:44:39;;;;;;;22.52;17.35;;;;;;;26.21;85.43;101263.31;5023710;28;20053;-67
2023/09/12 10:47:06;;;;;;;16.75;12.40;;;;;;;26.61;92.54;101249.81;5014063;28;20049;-67
2023/09/12 10:49:33;;;;;;;20.23;14.85;;;;;;;27.01;90.66;101254.22;5015372;28;20536;-67
2023/09/12 10:52:00;;;;;;;19.70;13.75;;;;;;;27.25;80.97;101256.75;5016420;28;20483;-67
2023/09/12 10:54:40;;;;;;;19.52;15.25;;;;;;;27.35;80.37;101261.47;5020133;28;20052;-67
2023/09/12 10:57:11;;;;;;;19.90;15.23;;;;;;;27.53;75.60;101266.56;5016404;28;20520;-66
2023/09/12 11:00:08;;;;;;;21.33;16.27;;;;;;;27.47;75.63;101256.78;5015541;28;20060;-67
2023/09/12 11:02:37;;;;;;;18.92;14.52;;;;;;;27.71;78.25;101261.94;5003625;28;20057;-66